Time;durP1;ratioP1;P1;durP2;ratioP2;P2;SDS_P1;SDS_P2;PMS_P1;PMS_P2;Temp;Humidity;BMP_temperature;BMP_pressure;BME280_temperature;BME280_humidity;BME280_pressure;Samples;Min_cycle;Max_cycle;Signal;HPM_P1;HPM_P2
2023/02/04 00:00:49;;;;;;;;;;;17.70;49.00;;;;;;10164411;28;782;-75
2023/02/04 00:05:44;;;;;;;;;;;17.70;49.00;;;;;;10164555;28;977;-75
2023/02/04 00:10:39;;;;;;;;;;;17.60;49.00;;;;;;10164081;28;1899;-75
2023/02/04 00:15:35;;;;;;;;;;;17.60;49.00;;;;;;10164072;28;897;-75
2023/02/04 00:20:30;;;;;;;;;;;17.60;48.90;;;;;;10163768;28;865;-75
2023/02/04 00:25:25;;;;;;;;;;;17.60;49.00;;;;;;10164584;28;893;-75
2023/02/04 00:30:21;;;;;;;;;;;17.60;48.90;;;;;;10163675;28;1962;-75
2023/02/04 00:35:16;;;;;;;;;;;17.60;49.00;;;;;;10164149;28;1345;-75
2023/02/04 00:40:11;;;;;;;;;;;17.60;49.10;;;;;;10163660;28;995;-75
2023/02/04 00:45:07;;;;;;;;;;;17.60;49.00;;;;;;10164063;28;802;-75
2023/02/04 00:50:02;;;;;;;;;;;17.60;49.00;;;;;;10163444;28;1907;-75
2023/02/04 00:54:58;;;;;;;;;;;17.60;49.10;;;;;;10163425;28;770;-75
2023/02/04 00:59:53;;;;;;;;;;;17.60;49.10;;;;;;10163876;28;891;-75
2023/02/04 01:04:48;;;;;;;;;;;17.60;49.10;;;;;;10162780;28;944;-75
2023/02/04 01:09:44;;;;;;;;;;;17.50;49.00;;;;;;10163096;28;1959;-75
2023/02/04 01:14:39;;;;;;;;;;;17.60;49.10;;;;;;10162999;28;927;-75
2023/02/04 01:19:34;;;;;;;;;;;17.60;49.10;;;;;;10163520;28;898;-75
2023/02/04 01:24:30;;;;;;;;;;;17.60;49.00;;;;;;10162773;28;856;-75
2023/02/04 01:29:25;;;;;;;;;;;17.60;49.10;;;;;;10166566;28;1890;-75
2023/02/04 01:34:20;;;;;;;;;;;17.60;49.20;;;;;;10169619;28;1012;-75
2023/02/04 01:39:16;;;;;;;;;;;17.60;49.00;;;;;;10169957;28;1162;-75
2023/02/04 01:44:11;;;;;;;;;;;17.60;49.00;;;;;;10169445;28;890;-75
2023/02/04 01:49:06;;;;;;;;;;;17.60;49.00;;;;;;10169739;28;1958;-75
2023/02/04 01:54:02;;;;;;;;;;;17.60;49.00;;;;;;10169689;28;808;-75
2023/02/04 01:58:57;;;;;;;;;;;17.60;48.90;;;;;;10168825;28;803;-75
2023/02/04 02:03:53;;;;;;;;;;;17.60;49.00;;;;;;10169615;28;867;-75
2023/02/04 02:08:48;;;;;;;;;;;17.60;49.10;;;;;;10168689;28;1902;-75
2023/02/04 02:13:43;;;;;;;;;;;17.60;49.10;;;;;;10151008;28;747;-75
2023/02/04 02:18:39;;;;;;;;;;;17.60;49.00;;;;;;10167976;28;779;-75
2023/02/04 02:23:34;;;;;;;;;;;17.60;49.00;;;;;;10167909;28;889;-75
2023/02/04 02:28:32;;;;;;;;;;;17.60;49.60;;;;;;10167886;28;1957;-75
2023/02/04 02:33:27;;;;;;;;;;;17.60;49.10;;;;;;10168331;28;825;-75
2023/02/04 02:38:22;;;;;;;;;;;17.60;49.00;;;;;;10149804;28;1449;-75
2023/02/04 02:43:18;;;;;;;;;;;17.60;49.00;;;;;;10167353;28;885;-75
2023/02/04 02:48:13;;;;;;;;;;;17.50;49.00;;;;;;10167533;28;1910;-75
2023/02/04 02:53:08;;;;;;;;;;;17.50;49.00;;;;;;10166815;28;865;-75
2023/02/04 02:58:04;;;;;;;;;;;17.60;49.00;;;;;;10167200;28;884;-74
2023/02/04 03:02:59;;;;;;;;;;;17.50;48.90;;;;;;10167021;28;882;-75
2023/02/04 03:07:54;;;;;;;;;;;17.50;49.00;;;;;;10165505;28;1964;-75
2023/02/04 03:12:50;;;;;;;;;;;17.60;49.10;;;;;;10165437;28;830;-75
2023/02/04 03:17:45;;;;;;;;;;;17.50;48.90;;;;;;10165881;28;865;-75
2023/02/04 03:22:41;;;;;;;;;;;17.50;49.00;;;;;;10166504;28;802;-75
2023/02/04 03:27:36;;;;;;;;;;;17.60;49.10;;;;;;10165513;28;794;-75
2023/02/04 03:32:31;;;;;;;;;;;17.50;48.90;;;;;;10165268;28;1910;-75
2023/02/04 03:37:27;;;;;;;;;;;17.50;48.90;;;;;;10165939;28;1171;-75
2023/02/04 03:42:23;;;;;;;;;;;17.50;48.90;;;;;;10165542;28;851;-75
2023/02/04 03:47:19;;;;;;;;;;;17.50;49.00;;;;;;10165385;28;835;-75
2023/02/04 03:52:14;;;;;;;;;;;17.60;49.00;;;;;;10165138;28;1922;-75
2023/02/04 03:57:09;;;;;;;;;;;17.50;48.90;;;;;;10164544;28;789;-75
2023/02/04 04:02:05;;;;;;;;;;;17.50;48.90;;;;;;10164351;28;844;-75
2023/02/04 04:07:00;;;;;;;;;;;17.50;48.90;;;;;;10164622;28;960;-75
2023/02/04 04:11:56;;;;;;;;;;;17.50;49.00;;;;;;10164727;28;1906;-75
2023/02/04 04:16:51;;;;;;;;;;;17.50;49.00;;;;;;10164142;28;844;-75
2023/02/04 04:21:47;;;;;;;;;;;17.50;49.60;;;;;;10164022;28;769;-75
2023/02/04 04:26:42;;;;;;;;;;;17.50;49.00;;;;;;10163389;28;920;-75
2023/02/04 04:31:37;;;;;;;;;;;17.50;49.60;;;;;;10163772;28;1906;-75
2023/02/04 04:36:33;;;;;;;;;;;17.50;49.00;;;;;;10164150;28;1381;-75
2023/02/04 04:41:28;;;;;;;;;;;17.50;49.00;;;;;;10163678;28;853;-75
2023/02/04 04:46:23;;;;;;;;;;;17.50;49.00;;;;;;10163409;28;1003;-75
2023/02/04 04:51:19;;;;;;;;;;;17.50;49.00;;;;;;10163417;28;1918;-75
2023/02/04 04:56:14;;;;;;;;;;;17.50;49.00;;;;;;10163316;28;975;-75
2023/02/04 05:01:09;;;;;;;;;;;17.50;49.00;;;;;;10163290;28;870;-75
2023/02/04 05:06:05;;;;;;;;;;;17.50;49.00;;;;;;10170545;28;909;-75
2023/02/04 05:11:00;;;;;;;;;;;17.50;49.00;;;;;;10170611;28;1975;-75
2023/02/04 05:15:55;;;;;;;;;;;17.50;49.00;;;;;;10170478;28;786;-75
2023/02/04 05:20:51;;;;;;;;;;;17.50;48.90;;;;;;10170992;28;810;-75
2023/02/04 05:25:46;;;;;;;;;;;17.50;48.90;;;;;;10169986;28;932;-75
2023/02/04 05:30:42;;;;;;;;;;;17.60;48.80;;;;;;10169297;28;1973;-75
2023/02/04 05:35:37;;;;;;;;;;;17.60;48.80;;;;;;10169627;28;1245;-75
2023/02/04 05:40:32;;;;;;;;;;;17.60;48.80;;;;;;10168989;28;872;-75
2023/02/04 05:45:28;;;;;;;;;;;17.60;48.80;;;;;;10170242;28;851;-75
2023/02/04 05:50:23;;;;;;;;;;;17.60;48.70;;;;;;10169795;28;1911;-75
2023/02/04 05:55:18;;;;;;;;;;;17.60;48.70;;;;;;10169625;28;953;-75
2023/02/04 06:00:14;;;;;;;;;;;17.60;48.70;;;;;;10168839;28;805;-75
2023/02/04 06:05:09;;;;;;;;;;;17.60;48.70;;;;;;10168560;28;982;-75
2023/02/04 06:10:04;;;;;;;;;;;17.60;48.70;;;;;;10168955;28;1910;-75
2023/02/04 06:15:00;;;;;;;;;;;17.70;48.70;;;;;;10167201;28;790;-75
2023/02/04 06:19:55;;;;;;;;;;;17.70;48.70;;;;;;10168175;28;783;-75
2023/02/04 06:24:51;;;;;;;;;;;17.70;48.70;;;;;;10168609;28;793;-75
2023/02/04 06:29:46;;;;;;;;;;;17.60;48.70;;;;;;10168301;28;1968;-75
2023/02/04 06:34:41;;;;;;;;;;;17.70;48.70;;;;;;10167409;28;1204;-75
2023/02/04 06:39:37;;;;;;;;;;;17.60;48.70;;;;;;10167410;28;784;-75
2023/02/04 06:44:32;;;;;;;;;;;17.70;48.80;;;;;;10151019;28;730;-74
2023/02/04 06:49:27;;;;;;;;;;;17.70;48.70;;;;;;10166887;28;1914;-79
2023/02/04 06:54:23;;;;;;;;;;;17.70;48.80;;;;;;10167642;28;885;-82
2023/02/04 06:59:18;;;;;;;;;;;17.60;48.70;;;;;;10167392;28;799;-81
2023/02/04 07:04:14;;;;;;;;;;;17.70;48.80;;;;;;10166487;28;846;-80
2023/02/04 07:09:09;;;;;;;;;;;17.70;48.80;;;;;;10166595;28;1957;-83
2023/02/04 07:14:05;;;;;;;;;;;17.60;48.80;;;;;;10166644;28;834;-81
2023/02/04 07:19:00;;;;;;;;;;;17.60;48.80;;;;;;10165989;28;858;-84
2023/02/04 07:23:55;;;;;;;;;;;17.50;48.90;;;;;;10165107;28;897;-81
2023/02/04 07:28:51;;;;;;;;;;;17.50;48.90;;;;;;10165107;28;1906;-81
2023/02/04 07:33:46;;;;;;;;;;;17.50;48.80;;;;;;10165322;28;887;-78
2023/02/04 07:38:42;;;;;;;;;;;17.60;48.80;;;;;;10165341;28;1332;-79
2023/02/04 07:43:37;;;;;;;;;;;17.60;48.80;;;;;;10164742;28;820;-78
2023/02/04 07:48:32;;;;;;;;;;;17.60;48.70;;;;;;10164984;28;1968;-79
2023/02/04 07:53:28;;;;;;;;;;;17.60;48.70;;;;;;10164698;28;897;-79
2023/02/04 07:58:23;;;;;;;;;;;17.60;48.70;;;;;;10164514;28;879;-79
2023/02/04 08:03:18;;;;;;;;;;;17.60;48.70;;;;;;10165010;28;976;-80
2023/02/04 08:08:14;;;;;;;;;;;17.60;48.70;;;;;;10164514;28;1899;-79
2023/02/04 08:13:09;;;;;;;;;;;17.60;48.70;;;;;;10165006;28;857;-79
2023/02/04 08:18:04;;;;;;;;;;;17.60;48.80;;;;;;10164664;28;959;-79
2023/02/04 08:23:00;;;;;;;;;;;17.60;48.70;;;;;;10163944;28;821;-79
2023/02/04 08:27:55;;;;;;;;;;;17.60;48.70;;;;;;10164555;28;1876;-79
2023/02/04 08:32:51;;;;;;;;;;;17.60;48.70;;;;;;10164777;28;1008;-75
2023/02/04 08:37:46;;;;;;;;;;;17.60;48.70;;;;;;10166401;28;1325;-79
2023/02/04 08:42:41;;;;;;;;;;;17.70;48.70;;;;;;10172536;28;786;-79
2023/02/04 08:47:37;;;;;;;;;;;17.70;48.70;;;;;;10172200;28;834;-80
2023/02/04 08:52:32;;;;;;;;;;;17.70;48.70;;;;;;10172037;28;1977;-79
2023/02/04 08:57:27;;;;;;;;;;;17.60;48.60;;;;;;10171267;28;810;-78
2023/02/04 09:02:23;;;;;;;;;;;17.60;48.60;;;;;;10171050;28;883;-76
2023/02/04 09:07:18;;;;;;;;;;;17.60;48.60;;;;;;10170534;28;970;-76
2023/02/04 09:12:14;;;;;;;;;;;17.60;48.60;;;;;;10171144;28;1911;-76
2023/02/04 09:17:09;;;;;;;;;;;17.60;48.60;;;;;;10171102;28;939;-75
2023/02/04 09:22:04;;;;;;;;;;;17.70;48.60;;;;;;10170317;28;873;-75
2023/02/04 09:27:00;;;;;;;;;;;17.70;48.60;;;;;;10170711;28;851;-76
2023/02/04 09:31:55;;;;;;;;;;;17.70;48.60;;;;;;10169896;28;1894;-76
2023/02/04 09:36:50;;;;;;;;;;;17.70;48.60;;;;;;10170075;28;1226;-76
2023/02/04 09:41:46;;;;;;;;;;;17.70;48.60;;;;;;10170398;28;850;-75
2023/02/04 09:46:41;;;;;;;;;;;17.80;48.60;;;;;;10169447;28;790;-75
2023/02/04 09:51:37;;;;;;;;;;;17.90;48.60;;;;;;10168349;28;1907;-74
2023/02/04 09:56:32;;;;;;;;;;;18.00;48.60;;;;;;10169720;28;924;-75
2023/02/04 10:01:28;;;;;;;;;;;18.00;48.60;;;;;;10169399;28;1085;-76
2023/02/04 10:06:23;;;;;;;;;;;18.00;48.70;;;;;;10168627;28;873;-76
2023/02/04 10:11:19;;;;;;;;;;;18.00;48.70;;;;;;10168494;28;1902;-75
2023/02/04 10:16:15;;;;;;;;;;;18.10;48.70;;;;;;10167666;28;1202;-72
2023/02/04 10:21:10;;;;;;;;;;;18.10;48.80;;;;;;10168157;28;798;-72
2023/02/04 10:26:06;;;;;;;;;;;18.00;48.80;;;;;;10168044;28;872;-72
2023/02/04 10:31:01;;;;;;;;;;;18.00;48.80;;;;;;10167747;28;1970;-76
2023/02/04 10:35:57;;;;;;;;;;;18.10;48.80;;;;;;10167151;28;1527;-76
2023/02/04 10:40:52;;;;;;;;;;;18.10;48.80;;;;;;10167975;28;829;-76
2023/02/04 10:45:47;;;;;;;;;;;18.10;48.90;;;;;;10167800;28;885;-75
2023/02/04 10:50:43;;;;;;;;;;;18.10;48.80;;;;;;10166968;28;1914;-76
2023/02/04 10:55:38;;;;;;;;;;;18.10;49.00;;;;;;10166777;28;960;-76
2023/02/04 11:00:33;;;;;;;;;;;18.20;49.10;;;;;;10166045;28;782;-76
2023/02/04 11:05:29;;;;;;;;;;;18.10;49.10;;;;;;10167051;28;893;-75
2023/02/04 11:10:24;;;;;;;;;;;18.20;49.20;;;;;;10166185;28;1899;-75
2023/02/04 11:15:19;;;;;;;;;;;18.20;49.80;;;;;;10165973;28;747;-75
2023/02/04 11:20:15;;;;;;;;;;;18.20;49.30;;;;;;10166583;28;865;-75
2023/02/04 11:25:10;;;;;;;;;;;18.20;49.20;;;;;;10165716;28;760;-75
2023/02/04 11:30:05;;;;;;;;;;;18.20;49.10;;;;;;10165441;28;1965;-75
2023/02/04 11:35:01;;;;;;;;;;;18.20;49.10;;;;;;10165888;28;1140;-76
2023/02/04 11:39:57;;;;;;;;;;;18.20;49.00;;;;;;10165254;28;775;-75
2023/02/04 11:44:52;;;;;;;;;;;18.20;49.00;;;;;;10165637;28;877;-76
2023/02/04 11:49:47;;;;;;;;;;;18.20;49.00;;;;;;10165113;28;1914;-76
2023/02/04 11:54:43;;;;;;;;;;;18.20;48.90;;;;;;10165319;28;893;-75
2023/02/04 11:59:38;;;;;;;;;;;18.20;49.00;;;;;;10164593;28;925;-75
2023/02/04 12:04:33;;;;;;;;;;;18.30;49.00;;;;;;10164426;28;1000;-76
2023/02/04 12:09:29;;;;;;;;;;;18.30;48.90;;;;;;10163585;28;1969;-75
2023/02/04 12:14:24;;;;;;;;;;;18.20;48.90;;;;;;10164840;28;889;-75
2023/02/04 12:19:20;;;;;;;;;;;18.30;48.90;;;;;;10164652;28;861;-71
2023/02/04 12:24:15;;;;;;;;;;;18.30;48.90;;;;;;10163976;28;787;-80
2023/02/04 12:29:10;;;;;;;;;;;18.20;49.00;;;;;;10163794;28;1957;-80
2023/02/04 12:34:06;;;;;;;;;;;18.00;49.10;;;;;;10164450;28;868;-81
2023/02/04 12:39:01;;;;;;;;;;;18.00;49.30;;;;;;10164140;28;1991;-80
2023/02/04 12:43:57;;;;;;;;;;;18.00;49.30;;;;;;10163711;28;890;-80
2023/02/04 12:48:52;;;;;;;;;;;17.90;49.20;;;;;;10163499;28;1914;-80
2023/02/04 12:53:48;;;;;;;;;;;18.00;49.30;;;;;;10163929;28;822;-81
2023/02/04 12:58:43;;;;;;;;;;;18.00;49.20;;;;;;10164003;28;871;-80
2023/02/04 13:03:38;;;;;;;;;;;17.90;49.10;;;;;;10163571;28;932;-81
2023/02/04 13:08:34;;;;;;;;;;;17.90;49.10;;;;;;10163090;28;1964;-79
2023/02/04 13:13:29;;;;;;;;;;;17.90;49.20;;;;;;10164178;28;785;-79
2023/02/04 13:18:24;;;;;;;;;;;17.90;49.20;;;;;;10162441;28;919;-80
2023/02/04 13:23:20;;;;;;;;;;;17.90;49.10;;;;;;10164125;28;864;-80
2023/02/04 13:28:15;;;;;;;;;;;17.90;49.70;;;;;;10170120;28;1898;-81
2023/02/04 13:33:11;;;;;;;;;;;17.90;49.10;;;;;;10170015;28;834;-81
2023/02/04 13:38:06;;;;;;;;;;;17.90;49.10;;;;;;10169572;28;1309;-81
2023/02/04 13:43:01;;;;;;;;;;;17.90;49.10;;;;;;10169580;28;994;-81
2023/02/04 13:47:57;;;;;;;;;;;17.90;49.10;;;;;;10169725;28;960;-80
2023/02/04 13:52:54;;;;;;;;;;;17.90;49.10;;;;;;10169258;28;1915;-81
2023/02/04 13:57:49;;;;;;;;;;;17.90;49.00;;;;;;10169106;28;966;-80
2023/02/04 14:02:45;;;;;;;;;;;17.90;49.00;;;;;;10168445;28;936;-80
2023/02/04 14:07:40;;;;;;;;;;;17.90;49.00;;;;;;10168711;28;896;-80
2023/02/04 14:12:35;;;;;;;;;;;17.90;49.00;;;;;;10168444;28;1906;-80
2023/02/04 14:17:31;;;;;;;;;;;17.90;49.00;;;;;;10168948;28;862;-82
2023/02/04 14:22:26;;;;;;;;;;;17.90;49.00;;;;;;10168011;28;833;-81
2023/02/04 14:27:22;;;;;;;;;;;17.90;49.10;;;;;;10168402;28;853;-80
2023/02/04 14:32:17;;;;;;;;;;;17.90;49.00;;;;;;10167468;28;1970;-80
2023/02/04 14:37:12;;;;;;;;;;;17.90;49.00;;;;;;10166258;28;1285;-81
2023/02/04 14:42:08;;;;;;;;;;;17.90;49.00;;;;;;10166482;28;1004;-81
2023/02/04 14:47:03;;;;;;;;;;;17.90;49.00;;;;;;10166986;28;784;-81
2023/02/04 14:51:58;;;;;;;;;;;17.90;49.00;;;;;;10166919;28;1918;-81
2023/02/04 14:56:54;;;;;;;;;;;17.90;49.10;;;;;;10166456;28;940;-82
2023/02/04 15:01:49;;;;;;;;;;;17.90;49.70;;;;;;10166351;28;911;-80
2023/02/04 15:06:45;;;;;;;;;;;17.90;49.00;;;;;;10165925;28;1012;-83
2023/02/04 15:11:40;;;;;;;;;;;18.00;48.90;;;;;;10166250;28;1910;-86
2023/02/04 15:16:35;;;;;;;;;;;18.00;48.90;;;;;;10166835;28;806;-81
2023/02/04 15:21:31;;;;;;;;;;;17.90;48.90;;;;;;10164851;28;861;-81
2023/02/04 15:26:26;;;;;;;;;;;17.90;48.80;;;;;;10165949;28;911;-79
2023/02/04 15:31:21;;;;;;;;;;;18.00;49.10;;;;;;10165119;28;1911;-78
2023/02/04 15:36:17;;;;;;;;;;;18.20;49.40;;;;;;10165500;28;1316;-78
2023/02/04 15:41:12;;;;;;;;;;;18.20;49.40;;;;;;10164891;28;791;-79
2023/02/04 15:46:08;;;;;;;;;;;18.30;49.50;;;;;;10165279;28;767;-79
2023/02/04 15:51:03;;;;;;;;;;;18.30;49.40;;;;;;10165228;28;1979;-79
2023/02/04 15:55:58;;;;;;;;;;;18.30;49.40;;;;;;10146953;28;1220;-79
2023/02/04 16:00:56;;;;;;;;;;;18.30;49.40;;;;;;10164262;28;886;-77
2023/02/04 16:05:51;;;;;;;;;;;18.30;49.50;;;;;;10164546;28;853;-79
2023/02/04 16:10:47;;;;;;;;;;;18.30;49.50;;;;;;10163978;28;1906;-78
2023/02/04 16:15:42;;;;;;;;;;;18.30;49.50;;;;;;10164035;28;916;-71
2023/02/04 16:20:37;;;;;;;;;;;18.30;49.50;;;;;;10163196;28;916;-71
2023/02/04 16:25:33;;;;;;;;;;;18.30;49.40;;;;;;10163593;28;838;-78
2023/02/04 16:30:28;;;;;;;;;;;18.30;49.40;;;;;;10164032;28;1902;-78
2023/02/04 16:35:25;;;;;;;;;;;18.30;49.30;;;;;;10163562;28;1493;-76
2023/02/04 16:40:21;;;;;;;;;;;18.30;49.30;;;;;;10163981;28;883;-77
2023/02/04 16:45:17;;;;;;;;;;;18.30;49.30;;;;;;10164206;28;881;-78
2023/02/04 16:50:12;;;;;;;;;;;18.40;49.50;;;;;;10163069;28;1914;-79
2023/02/04 16:55:08;;;;;;;;;;;18.40;49.40;;;;;;10162732;28;819;-80
2023/02/04 17:00:03;;;;;;;;;;;18.40;49.40;;;;;;10166778;28;810;-79
2023/02/04 17:04:58;;;;;;;;;;;18.40;49.40;;;;;;10171357;28;864;-79
2023/02/04 17:09:54;;;;;;;;;;;18.40;49.40;;;;;;10171123;28;1962;-79
2023/02/04 17:14:49;;;;;;;;;;;18.40;49.30;;;;;;10171269;28;865;-80
2023/02/04 17:19:44;;;;;;;;;;;18.30;49.30;;;;;;10170285;28;905;-79
2023/02/04 17:24:42;;;;;;;;;;;18.40;49.30;;;;;;10169950;28;879;-78
2023/02/04 17:29:37;;;;;;;;;;;18.40;49.20;;;;;;10170282;28;1902;-80
2023/02/04 17:34:33;;;;;;;;;;;18.40;49.30;;;;;;10170346;28;803;-78
2023/02/04 17:39:28;;;;;;;;;;;18.40;49.20;;;;;;10168805;28;1320;-79
2023/02/04 17:44:23;;;;;;;;;;;18.40;49.20;;;;;;10170197;28;810;-78
2023/02/04 17:49:19;;;;;;;;;;;18.40;49.10;;;;;;10169402;28;1973;-78
2023/02/04 17:54:14;;;;;;;;;;;18.40;49.10;;;;;;10169938;28;866;-79
2023/02/04 17:59:10;;;;;;;;;;;18.30;49.10;;;;;;10169117;28;768;-78
2023/02/04 18:04:05;;;;;;;;;;;18.30;49.10;;;;;;10169450;28;826;-79
2023/02/04 18:09:01;;;;;;;;;;;18.40;49.10;;;;;;10167811;28;1906;-79
2023/02/04 18:13:56;;;;;;;;;;;18.40;49.70;;;;;;10168509;28;1021;-78
2023/02/04 18:18:52;;;;;;;;;;;18.40;49.00;;;;;;10167814;28;948;-79
2023/02/04 18:23:48;;;;;;;;;;;18.40;49.00;;;;;;10168920;28;865;-78
2023/02/04 18:28:43;;;;;;;;;;;18.40;49.10;;;;;;10168511;28;1946;-71
2023/02/04 18:33:40;;;;;;;;;;;18.40;48.90;;;;;;10167818;28;814;-78
2023/02/04 18:38:38;;;;;;;;;;;18.40;49.10;;;;;;10168436;28;1330;-79
2023/02/04 18:43:33;;;;;;;;;;;18.50;49.10;;;;;;10166642;28;979;-79
2023/02/04 18:48:28;;;;;;;;;;;18.50;49.00;;;;;;10166592;28;1903;-78
2023/02/04 18:53:24;;;;;;;;;;;18.50;49.20;;;;;;10166436;28;1261;-78
2023/02/04 18:58:19;;;;;;;;;;;18.50;49.30;;;;;;10166298;28;858;-78
2023/02/04 19:03:14;;;;;;;;;;;18.40;49.50;;;;;;10167428;28;875;-78
2023/02/04 19:08:10;;;;;;;;;;;18.40;49.70;;;;;;10167025;28;871;-79
2023/02/04 19:13:05;;;;;;;;;;;18.30;49.60;;;;;;10166225;28;1971;-79
2023/02/04 19:18:00;;;;;;;;;;;18.30;49.30;;;;;;10166141;28;772;-79
2023/02/04 19:22:56;;;;;;;;;;;18.40;49.20;;;;;;10166036;28;960;-79
2023/02/04 19:27:52;;;;;;;;;;;18.40;49.10;;;;;;10166291;28;970;-79
2023/02/04 19:32:54;;;;;;;;;;;18.30;49.10;;;;;;10165500;28;1906;-79
2023/02/04 19:37:49;;;;;;;;;;;18.30;49.10;;;;;;10164698;28;1306;-79
2023/02/04 19:42:45;;;;;;;;;;;18.30;49.10;;;;;;10165824;28;891;-78
2023/02/04 19:47:41;;;;;;;;;;;18.30;49.10;;;;;;10165064;28;1114;-79
2023/02/04 19:52:36;;;;;;;;;;;18.30;49.00;;;;;;10164748;28;1977;-78
2023/02/04 19:57:31;;;;;;;;;;;18.30;49.00;;;;;;10164744;28;778;-78
2023/02/04 20:02:28;;;;;;;;;;;18.30;49.10;;;;;;10164010;28;1051;-79
2023/02/04 20:07:23;;;;;;;;;;;18.30;49.00;;;;;;10165289;28;895;-79
2023/02/04 20:12:18;;;;;;;;;;;18.30;48.90;;;;;;10164257;28;1969;-78
2023/02/04 20:17:14;;;;;;;;;;;18.30;48.90;;;;;;10164216;28;1157;-79
2023/02/04 20:22:09;;;;;;;;;;;18.30;48.90;;;;;;10164145;28;959;-79
2023/02/04 20:27:04;;;;;;;;;;;18.30;48.90;;;;;;10165236;28;874;-79
2023/02/04 20:32:00;;;;;;;;;;;18.30;49.00;;;;;;10163845;28;1957;-79
2023/02/04 20:36:55;;;;;;;;;;;18.30;49.00;;;;;;10170757;28;1218;-78
2023/02/04 20:41:51;;;;;;;;;;;18.30;49.00;;;;;;10172004;28;909;-79
2023/02/04 20:46:46;;;;;;;;;;;18.30;48.90;;;;;;10172418;28;857;-79
2023/02/04 20:51:41;;;;;;;;;;;18.30;49.00;;;;;;10171593;28;1922;-84
2023/02/04 20:56:39;;;;;;;;;;;18.20;48.80;;;;;;10171445;28;807;-84
2023/02/04 21:01:37;;;;;;;;;;;18.10;49.10;;;;;;10171949;28;956;-72
2023/02/04 21:06:32;;;;;;;;;;;18.00;49.20;;;;;;10170396;28;886;-72
2023/02/04 21:11:28;;;;;;;;;;;17.90;49.30;;;;;;10170337;28;1910;-76
2023/02/04 21:16:23;;;;;;;;;;;17.90;49.30;;;;;;10170754;28;761;-76
2023/02/04 21:21:19;;;;;;;;;;;17.90;49.20;;;;;;10171325;28;818;-76
2023/02/04 21:26:15;;;;;;;;;;;17.90;49.10;;;;;;10170297;28;908;-76
2023/02/04 21:31:10;;;;;;;;;;;17.90;49.00;;;;;;10170152;28;1964;-76
2023/02/04 21:36:06;;;;;;;;;;;17.90;49.10;;;;;;10169804;28;1302;-76
2023/02/04 21:41:01;;;;;;;;;;;17.90;49.10;;;;;;10170335;28;895;-76
2023/02/04 21:45:56;;;;;;;;;;;17.90;49.20;;;;;;10169248;28;960;-76
2023/02/04 21:50:52;;;;;;;;;;;17.90;49.00;;;;;;10170100;28;1981;-76
2023/02/04 21:55:48;;;;;;;;;;;17.90;49.00;;;;;;10169276;28;798;-76
2023/02/04 22:00:43;;;;;;;;;;;17.90;49.00;;;;;;10169143;28;928;-76
2023/02/04 22:05:38;;;;;;;;;;;17.90;48.90;;;;;;10168870;28;850;-76
2023/02/04 22:10:34;;;;;;;;;;;17.90;49.00;;;;;;10168655;28;1903;-76
2023/02/04 22:15:29;;;;;;;;;;;17.90;49.10;;;;;;10169287;28;768;-76
2023/02/04 22:20:24;;;;;;;;;;;17.90;49.00;;;;;;10168949;28;834;-76
2023/02/04 22:25:20;;;;;;;;;;;17.90;48.90;;;;;;10168324;28;802;-76
2023/02/04 22:30:15;;;;;;;;;;;17.90;49.00;;;;;;10167932;28;1914;-77
2023/02/04 22:35:11;;;;;;;;;;;17.90;49.00;;;;;;10167895;28;1161;-76
2023/02/04 22:40:06;;;;;;;;;;;17.90;49.00;;;;;;10167659;28;760;-76
2023/02/04 22:45:02;;;;;;;;;;;17.90;49.10;;;;;;10166891;28;901;-76
2023/02/04 22:49:57;;;;;;;;;;;17.90;49.00;;;;;;10167731;28;1926;-76
2023/02/04 22:54:53;;;;;;;;;;;17.90;48.90;;;;;;10167690;28;854;-76
2023/02/04 22:59:48;;;;;;;;;;;17.90;49.00;;;;;;10166565;28;794;-76
2023/02/04 23:04:44;;;;;;;;;;;17.80;48.90;;;;;;10166746;28;833;-76
2023/02/04 23:09:39;;;;;;;;;;;17.90;49.00;;;;;;10165833;28;1902;-85
2023/02/04 23:14:34;;;;;;;;;;;17.80;49.60;;;;;;10166902;28;896;-75
2023/02/04 23:19:30;;;;;;;;;;;17.80;48.90;;;;;;10167126;28;865;-75
2023/02/04 23:24:25;;;;;;;;;;;17.80;48.90;;;;;;10165925;28;956;-75
2023/02/04 23:29:20;;;;;;;;;;;17.80;48.90;;;;;;10165116;28;1906;-75
2023/02/04 23:34:16;;;;;;;;;;;17.80;48.90;;;;;;10165606;28;874;-75
2023/02/04 23:39:11;;;;;;;;;;;17.80;48.80;;;;;;10164911;28;1557;-75
2023/02/04 23:44:07;;;;;;;;;;;17.80;48.90;;;;;;10165243;28;954;-75
2023/02/04 23:49:04;;;;;;;;;;;17.80;48.80;;;;;;10165942;28;1914;-75
2023/02/04 23:53:59;;;;;;;;;;;17.90;48.90;;;;;;10165730;28;856;-75
2023/02/04 23:58:54;;;;;;;;;;;17.80;48.90;;;;;;10165539;28;895;-75
